Time;durP1;ratioP1;P1;durP2;ratioP2;P2;SDS_P1;SDS_P2;PMS_P1;PMS_P2;Temp;Humidity;BMP_temperature;BMP_pressure;BME280_temperature;BME280_humidity;BME280_pressure;Samples;Min_cycle;Max_cycle;Signal;HPM_P1;HPM_P2
2024/01/09 00:01:50;;;;;;;123.35;116.57;;;;;;;;;;5027102;28;20901;-63
2024/01/09 00:04:17;;;;;;;118.50;111.47;;;;;;;;;;5030247;28;20530;-63
2024/01/09 00:06:47;;;;;;;123.65;116.85;;;;;;;;;;5042948;28;20429;-63
2024/01/09 00:09:14;;;;;;;123.07;116.35;;;;;;;;;;5027952;28;20934;-63
2024/01/09 00:11:42;;;;;;;120.57;113.50;;;;;;;;;;5036502;28;20913;-63
2024/01/09 00:14:11;;;;;;;131.63;124.53;;;;;;;;;;5047662;28;20417;-63
2024/01/09 00:16:40;;;;;;;118.40;111.72;;;;;;;;;;5036319;28;20466;-63
2024/01/09 00:19:10;;;;;;;116.57;110.03;;;;;;;;;;5038117;28;21122;-63
2024/01/09 00:21:39;;;;;;;129.43;122.32;;;;;;;;;;5031036;28;20447;-63
2024/01/09 00:24:06;;;;;;;118.15;111.70;;;;;;;;;;5043506;28;21098;-63
2024/01/09 00:26:43;;;;;;;106.10;100.03;;;;;;;;;;5027666;28;20473;-63
2024/01/09 00:29:10;;;;;;;116.40;109.87;;;;;;;;;;5038529;28;20429;-63
2024/01/09 00:31:38;;;;;;;129.45;122.38;;;;;;;;;;5037346;28;20787;-63
2024/01/09 00:34:05;;;;;;;120.63;114.10;;;;;;;;;;5034453;28;20813;-63
2024/01/09 00:36:33;;;;;;;121.05;114.15;;;;;;;;;;5029425;28;20440;-63
2024/01/09 00:39:00;;;;;;;118.70;112.00;;;;;;;;;;5039325;28;20887;-63
2024/01/09 00:41:27;;;;;;;114.72;108.20;;;;;;;;;;5042609;28;20433;-63
2024/01/09 00:43:54;;;;;;;114.95;108.43;;;;;;;;;;5043374;28;20438;-63
2024/01/09 00:46:26;;;;;;;116.53;109.95;;;;;;;;;;5028933;28;20430;-63
2024/01/09 00:48:55;;;;;;;112.20;105.75;;;;;;;;;;5034178;28;20540;-63
2024/01/09 00:51:23;;;;;;;111.55;105.43;;;;;;;;;;5046617;28;20421;-63
2024/01/09 00:53:51;;;;;;;122.43;115.57;;;;;;;;;;5034210;28;20525;-63
2024/01/09 00:56:21;;;;;;;112.60;106.30;;;;;;;;;;5040780;28;21087;-63
2024/01/09 00:58:48;;;;;;;115.95;109.40;;;;;;;;;;5040741;28;20434;-63
2024/01/09 01:01:16;;;;;;;116.55;110.13;;;;;;;;;;5039604;28;20512;-63
2024/01/09 01:03:43;;;;;;;117.60;110.70;;;;;;;;;;5032286;28;20920;-63
2024/01/09 01:06:10;;;;;;;120.47;113.50;;;;;;;;;;5032539;28;20458;-63
2024/01/09 01:08:37;;;;;;;123.45;116.47;;;;;;;;;;5042040;28;20520;-63
2024/01/09 01:11:08;;;;;;;118.20;111.57;;;;;;;;;;5037115;28;20426;-63
2024/01/09 01:13:35;;;;;;;127.93;120.82;;;;;;;;;;5040700;28;20487;-63
2024/01/09 01:16:03;;;;;;;126.87;119.83;;;;;;;;;;5041662;28;20906;-63
2024/01/09 01:18:30;;;;;;;124.10;117.32;;;;;;;;;;5042522;28;20495;-63
2024/01/09 01:20:57;;;;;;;123.18;116.50;;;;;;;;;;5043091;28;20964;-63
2024/01/09 01:23:24;;;;;;;122.53;115.90;;;;;;;;;;5044336;28;20784;-63
2024/01/09 01:25:52;;;;;;;122.63;115.73;;;;;;;;;;5041607;28;20455;-63
2024/01/09 01:28:20;;;;;;;136.65;128.95;;;;;;;;;;5038665;28;20501;-63
2024/01/09 01:30:47;;;;;;;137.50;129.80;;;;;;;;;;5044137;28;20439;-63
2024/01/09 01:33:17;;;;;;;121.07;114.38;;;;;;;;;;5035879;28;20492;-63
2024/01/09 01:35:45;;;;;;;128.68;121.65;;;;;;;;;;5031137;28;20903;-63
2024/01/09 01:38:14;;;;;;;123.40;116.45;;;;;;;;;;5036959;28;20466;-63
2024/01/09 01:40:42;;;;;;;117.38;110.78;;;;;;;;;;5042220;28;20923;-63
2024/01/09 01:43:09;;;;;;;123.47;116.63;;;;;;;;;;5049817;28;20564;-63
2024/01/09 01:45:36;;;;;;;120.82;113.70;;;;;;;;;;5040505;28;20461;-63
2024/01/09 01:48:03;;;;;;;122.57;115.57;;;;;;;;;;5034282;28;20431;-63
2024/01/09 01:50:32;;;;;;;121.80;114.85;;;;;;;;;;5045709;28;20437;-62
2024/01/09 01:53:00;;;;;;;136.93;129.18;;;;;;;;;;5037782;28;20427;-63
2024/01/09 01:55:27;;;;;;;128.88;121.95;;;;;;;;;;5065208;28;20436;-62
2024/01/09 01:57:55;;;;;;;134.60;127.28;;;;;;;;;;5038883;28;20438;-63
2024/01/09 02:00:23;;;;;;;128.73;121.93;;;;;;;;;;5040615;28;20467;-62
2024/01/09 02:02:51;;;;;;;116.18;109.45;;;;;;;;;;5044408;28;20437;-63
2024/01/09 02:05:22;;;;;;;126.72;118.47;;;;;;;;;;5048823;28;20946;-63
2024/01/09 02:07:53;;;;;;;132.30;124.82;;;;;;;;;;5037780;28;20434;-63
2024/01/09 02:10:20;;;;;;;137.30;129.53;;;;;;;;;;5043723;28;20475;-63
2024/01/09 02:12:47;;;;;;;141.13;133.13;;;;;;;;;;5039005;28;20439;-63
2024/01/09 02:15:15;;;;;;;136.90;128.77;;;;;;;;;;5048055;28;20452;-63
2024/01/09 02:17:42;;;;;;;146.40;138.23;;;;;;;;;;5039747;28;20429;-63
2024/01/09 02:20:10;;;;;;;131.48;123.82;;;;;;;;;;5035131;28;20430;-62
2024/01/09 02:22:37;;;;;;;132.18;124.25;;;;;;;;;;5040407;28;20507;-63
2024/01/09 02:25:05;;;;;;;125.90;118.57;;;;;;;;;;5033721;28;20447;-63
2024/01/09 02:27:50;;;;;;;125.10;117.90;;;;;;;;;;5034281;28;20433;-63
2024/01/09 02:30:18;;;;;;;129.43;122.13;;;;;;;;;;5029553;28;20430;-62
2024/01/09 02:32:46;;;;;;;135.70;127.80;;;;;;;;;;5029946;28;20435;-63
2024/01/09 02:35:16;;;;;;;131.25;123.72;;;;;;;;;;5043719;28;20434;-62
2024/01/09 02:37:46;;;;;;;134.73;127.00;;;;;;;;;;5042972;28;20429;-62
2024/01/09 02:40:17;;;;;;;127.20;119.88;;;;;;;;;;5038791;28;20487;-62
2024/01/09 02:42:44;;;;;;;142.95;134.55;;;;;;;;;;5039958;28;20435;-62
2024/01/09 02:45:13;;;;;;;142.20;134.10;;;;;;;;;;5040913;28;20813;-62
2024/01/09 02:47:40;;;;;;;154.80;146.17;;;;;;;;;;5037098;28;20872;-62
2024/01/09 02:50:08;;;;;;;156.38;147.52;;;;;;;;;;5028084;28;20514;-63
2024/01/09 02:52:35;;;;;;;153.55;144.90;;;;;;;;;;5035384;28;20421;-62
2024/01/09 02:55:02;;;;;;;156.25;147.48;;;;;;;;;;5037112;28;20435;-62
2024/01/09 02:57:32;;;;;;;164.85;155.55;;;;;;;;;;5048963;28;20463;-62
2024/01/09 02:59:59;;;;;;;180.40;170.30;;;;;;;;;;5028435;28;20443;-62
2024/01/09 03:02:27;;;;;;;179.15;168.93;;;;;;;;;;5039946;28;20928;-62
2024/01/09 03:04:54;;;;;;;172.35;162.93;;;;;;;;;;5029754;28;20458;-62
2024/01/09 03:07:21;;;;;;;163.77;153.43;;;;;;;;;;5048237;28;20440;-62
2024/01/09 03:09:49;;;;;;;191.40;181.02;;;;;;;;;;5039490;28;20425;-62
2024/01/09 03:12:16;;;;;;;185.02;174.88;;;;;;;;;;5036236;28;20437;-62
2024/01/09 03:14:43;;;;;;;152.67;144.07;;;;;;;;;;5031326;28;20437;-62
2024/01/09 03:17:13;;;;;;;184.45;174.30;;;;;;;;;;5036577;28;20971;-62
2024/01/09 03:19:43;;;;;;;206.43;195.35;;;;;;;;;;5029776;28;20906;-62
2024/01/09 03:22:10;;;;;;;200.68;189.70;;;;;;;;;;5041712;28;20441;-66
2024/01/09 03:24:37;;;;;;;167.68;158.35;;;;;;;;;;5040095;28;20514;-62
2024/01/09 03:27:04;;;;;;;194.70;184.10;;;;;;;;;;5043324;28;20492;-62
2024/01/09 03:29:31;;;;;;;204.53;193.80;;;;;;;;;;5040765;28;20698;-62
2024/01/09 03:31:59;;;;;;;168.65;158.82;;;;;;;;;;5028757;28;20437;-62
2024/01/09 03:34:27;;;;;;;153.95;145.05;;;;;;;;;;5037184;28;20433;-62
2024/01/09 03:36:54;;;;;;;147.18;138.68;;;;;;;;;;5033197;28;20423;-62
2024/01/09 03:39:21;;;;;;;164.10;154.30;;;;;;;;;;5037107;28;20534;-62
2024/01/09 03:41:52;;;;;;;168.05;158.65;;;;;;;;;;5046976;28;20834;-62
2024/01/09 03:44:19;;;;;;;149.65;140.75;;;;;;;;;;5033965;28;20441;-62
2024/01/09 03:46:46;;;;;;;154.88;146.07;;;;;;;;;;5038939;28;20436;-62
2024/01/09 03:49:16;;;;;;;165.32;155.98;;;;;;;;;;5047866;28;20440;-62
2024/01/09 03:51:43;;;;;;;167.88;158.40;;;;;;;;;;5038905;28;20431;-62
2024/01/09 03:54:13;;;;;;;168.30;158.73;;;;;;;;;;5040323;28;20912;-62
2024/01/09 03:56:40;;;;;;;165.88;156.13;;;;;;;;;;5041635;28;20460;-62
2024/01/09 03:59:08;;;;;;;174.20;164.70;;;;;;;;;;5037877;28;20856;-61
2024/01/09 04:01:35;;;;;;;163.05;153.82;;;;;;;;;;5037893;28;20430;-61
2024/01/09 04:04:02;;;;;;;163.10;153.75;;;;;;;;;;5042571;28;20435;-61
2024/01/09 04:06:29;;;;;;;164.87;155.33;;;;;;;;;;5039268;28;20428;-61
2024/01/09 04:08:57;;;;;;;187.10;176.60;;;;;;;;;;5047069;28;20424;-61
2024/01/09 04:11:27;;;;;;;165.68;155.98;;;;;;;;;;5036938;28;20430;-61
2024/01/09 04:13:54;;;;;;;147.15;138.73;;;;;;;;;;5035861;28;20447;-61
2024/01/09 04:16:24;;;;;;;187.50;177.10;;;;;;;;;;5042911;28;20533;-62
2024/01/09 04:18:51;;;;;;;136.90;128.85;;;;;;;;;;5037409;28;20494;-61
2024/01/09 04:21:19;;;;;;;173.75;163.73;;;;;;;;;;5040391;28;20469;-61
2024/01/09 04:23:46;;;;;;;191.18;180.55;;;;;;;;;;5044453;28;20433;-61
2024/01/09 04:26:16;;;;;;;165.80;156.68;;;;;;;;;;5049156;28;20444;-61
2024/01/09 04:28:44;;;;;;;159.73;150.43;;;;;;;;;;5042724;28;20534;-61
2024/01/09 04:31:11;;;;;;;185.07;173.40;;;;;;;;;;5048899;28;20893;-61
2024/01/09 04:33:41;;;;;;;131.27;123.65;;;;;;;;;;5045264;28;20455;-62
2024/01/09 04:36:08;;;;;;;131.85;124.07;;;;;;;;;;5048640;28;20429;-61
2024/01/09 04:38:36;;;;;;;139.98;131.73;;;;;;;;;;5046445;28;20437;-61
2024/01/09 04:41:03;;;;;;;142.30;133.93;;;;;;;;;;5033755;28;20430;-61
2024/01/09 04:43:31;;;;;;;130.65;123.05;;;;;;;;;;5039215;28;20428;-61
2024/01/09 04:45:58;;;;;;;130.53;122.80;;;;;;;;;;5047878;28;20523;-61
2024/01/09 04:48:25;;;;;;;134.20;126.43;;;;;;;;;;5046848;28;20434;-61
2024/01/09 04:50:53;;;;;;;128.32;120.70;;;;;;;;;;5044125;28;20505;-61
2024/01/09 04:53:20;;;;;;;130.57;122.80;;;;;;;;;;5039847;28;20521;-61
2024/01/09 04:55:47;;;;;;;137.70;129.70;;;;;;;;;;5037781;28;20437;-61
2024/01/09 04:58:14;;;;;;;133.15;125.43;;;;;;;;;;5036975;28;20521;-61
2024/01/09 05:00:41;;;;;;;132.85;125.00;;;;;;;;;;5041398;28;20429;-61
2024/01/09 05:03:09;;;;;;;137.23;129.10;;;;;;;;;;5051202;28;20520;-61
2024/01/09 05:05:36;;;;;;;126.35;118.88;;;;;;;;;;5043642;28;20437;-61
2024/01/09 05:08:03;;;;;;;124.00;116.53;;;;;;;;;;5036463;28;20435;-61
2024/01/09 05:10:31;;;;;;;137.48;129.27;;;;;;;;;;5040574;28;20514;-61
2024/01/09 05:12:58;;;;;;;131.77;123.93;;;;;;;;;;5042793;28;20434;-61
2024/01/09 05:15:26;;;;;;;138.35;129.88;;;;;;;;;;5044642;28;20425;-61
2024/01/09 05:17:53;;;;;;;140.43;132.25;;;;;;;;;;5045831;28;20907;-61
2024/01/09 05:20:20;;;;;;;138.07;129.95;;;;;;;;;;5043774;28;20447;-61
2024/01/09 05:22:47;;;;;;;127.90;120.32;;;;;;;;;;5037562;28;20550;-61
2024/01/09 05:25:15;;;;;;;131.77;123.97;;;;;;;;;;5046053;28;20453;-61
2024/01/09 05:27:42;;;;;;;127.30;119.72;;;;;;;;;;5047380;28;20437;-61
2024/01/09 05:30:09;;;;;;;129.60;121.95;;;;;;;;;;5048808;28;20433;-61
2024/01/09 05:32:37;;;;;;;130.25;122.22;;;;;;;;;;5047741;28;20433;-61
2024/01/09 05:35:04;;;;;;;135.13;127.07;;;;;;;;;;5048627;28;20463;-61
2024/01/09 05:37:31;;;;;;;133.40;125.53;;;;;;;;;;5038568;28;20458;-61
2024/01/09 05:40:02;;;;;;;132.20;124.38;;;;;;;;;;5038288;28;20500;-61
2024/01/09 05:42:29;;;;;;;133.27;125.38;;;;;;;;;;5043293;28;20518;-61
2024/01/09 05:44:56;;;;;;;136.07;128.07;;;;;;;;;;5046528;28;20457;-61
2024/01/09 05:47:26;;;;;;;135.15;127.22;;;;;;;;;;5039243;28;20518;-61
2024/01/09 05:49:54;;;;;;;130.88;123.20;;;;;;;;;;5044044;28;21205;-60
2024/01/09 05:52:21;;;;;;;131.90;124.10;;;;;;;;;;5042367;28;20429;-61
2024/01/09 05:54:48;;;;;;;126.97;119.50;;;;;;;;;;5043907;28;20487;-61
2024/01/09 05:57:15;;;;;;;131.57;123.88;;;;;;;;;;5040049;28;20427;-61
2024/01/09 05:59:42;;;;;;;139.93;131.52;;;;;;;;;;5042913;28;20520;-61
2024/01/09 06:02:12;;;;;;;132.90;124.68;;;;;;;;;;5029826;28;20596;-61
2024/01/09 06:04:45;;;;;;;130.07;122.35;;;;;;;;;;5037038;28;20437;-61
2024/01/09 06:07:17;;;;;;;134.30;126.40;;;;;;;;;;5042180;28;20445;-61
2024/01/09 06:09:45;;;;;;;123.47;116.20;;;;;;;;;;5035761;28;20435;-61
2024/01/09 06:12:12;;;;;;;130.43;122.30;;;;;;;;;;5040028;28;20517;-61
2024/01/09 06:14:42;;;;;;;138.32;130.35;;;;;;;;;;5033405;28;20540;-61
2024/01/09 06:17:09;;;;;;;133.98;125.97;;;;;;;;;;5040191;28;20447;-61
2024/01/09 06:19:36;;;;;;;125.15;117.75;;;;;;;;;;5043476;28;20443;-62
2024/01/09 06:22:03;;;;;;;130.98;123.25;;;;;;;;;;5040116;28;21051;-60
2024/01/09 06:24:31;;;;;;;132.98;125.25;;;;;;;;;;5036013;28;20460;-61
2024/01/09 06:26:58;;;;;;;130.63;122.43;;;;;;;;;;5035478;28;20540;-61
2024/01/09 06:29:32;;;;;;;118.78;111.82;;;;;;;;;;5045253;28;20426;-60
2024/01/09 06:31:59;;;;;;;122.95;115.70;;;;;;;;;;5041343;28;20426;-61
2024/01/09 06:34:27;;;;;;;132.27;124.63;;;;;;;;;;5036202;28;20425;-61
2024/01/09 06:36:54;;;;;;;126.72;119.30;;;;;;;;;;5044362;28;20437;-61
2024/01/09 06:39:21;;;;;;;140.35;132.02;;;;;;;;;;5030295;28;20461;-61
2024/01/09 06:41:48;;;;;;;128.25;120.78;;;;;;;;;;5032800;28;20857;-61
2024/01/09 06:44:16;;;;;;;136.13;128.20;;;;;;;;;;5035674;28;20900;-60
2024/01/09 06:46:46;;;;;;;128.45;120.97;;;;;;;;;;5035277;28;20435;-61
2024/01/09 06:49:16;;;;;;;140.13;132.00;;;;;;;;;;5035432;28;20508;-61
2024/01/09 06:51:44;;;;;;;131.93;124.28;;;;;;;;;;5040970;28;20437;-61
2024/01/09 06:54:13;;;;;;;133.02;125.22;;;;;;;;;;5033804;28;20424;-61
2024/01/09 06:56:46;;;;;;;132.73;124.95;;;;;;;;;;5042321;28;20486;-61
2024/01/09 06:59:13;;;;;;;135.30;127.43;;;;;;;;;;5037022;28;20518;-61
2024/01/09 07:01:40;;;;;;;133.30;125.60;;;;;;;;;;5042304;28;20429;-61
2024/01/09 07:04:08;;;;;;;128.18;120.55;;;;;;;;;;5043243;28;20433;-61
2024/01/09 07:06:36;;;;;;;125.93;118.47;;;;;;;;;;5038416;28;20437;-61
2024/01/09 07:09:03;;;;;;;128.38;120.90;;;;;;;;;;5037365;28;20433;-61
2024/01/09 07:11:30;;;;;;;136.85;128.77;;;;;;;;;;5044204;28;20429;-61
2024/01/09 07:13:58;;;;;;;128.23;120.68;;;;;;;;;;5036470;28;20495;-61
2024/01/09 07:16:29;;;;;;;126.75;119.20;;;;;;;;;;5034382;28;21363;-61
2024/01/09 07:18:56;;;;;;;136.70;128.73;;;;;;;;;;5032789;28;20428;-61
2024/01/09 07:21:23;;;;;;;135.57;127.70;;;;;;;;;;5036081;28;20514;-61
2024/01/09 07:23:51;;;;;;;128.32;120.85;;;;;;;;;;5032396;28;20445;-61
2024/01/09 07:26:18;;;;;;;136.45;128.60;;;;;;;;;;5033668;28;20469;-61
2024/01/09 07:28:45;;;;;;;134.60;126.73;;;;;;;;;;5046996;28;20486;-61
2024/01/09 07:31:12;;;;;;;120.90;113.68;;;;;;;;;;5037934;28;20417;-61
2024/01/09 07:33:40;;;;;;;127.20;119.80;;;;;;;;;;5046103;28;20429;-61
2024/01/09 07:36:10;;;;;;;135.30;127.40;;;;;;;;;;5038565;28;20436;-61
2024/01/09 07:38:38;;;;;;;125.25;117.88;;;;;;;;;;5035985;28;20430;-61
2024/01/09 07:41:05;;;;;;;135.60;127.78;;;;;;;;;;5039315;28;20429;-61
2024/01/09 07:43:32;;;;;;;122.07;114.88;;;;;;;;;;5035258;28;20429;-61
2024/01/09 07:46:00;;;;;;;129.17;121.50;;;;;;;;;;5040126;28;20443;-61
2024/01/09 07:48:27;;;;;;;123.57;116.50;;;;;;;;;;5038197;28;20438;-61
2024/01/09 07:50:56;;;;;;;122.80;115.75;;;;;;;;;;5034831;28;20425;-61
2024/01/09 07:53:23;;;;;;;111.82;105.38;;;;;;;;;;5042093;28;20434;-61
2024/01/09 07:55:51;;;;;;;124.47;117.30;;;;;;;;;;5042393;28;20465;-61
2024/01/09 07:58:18;;;;;;;130.85;123.35;;;;;;;;;;5044610;28;20436;-61
2024/01/09 08:00:46;;;;;;;125.53;118.15;;;;;;;;;;5043443;28;20515;-61
2024/01/09 08:03:14;;;;;;;116.18;109.47;;;;;;;;;;5035750;28;20429;-61
2024/01/09 08:05:45;;;;;;;116.55;109.68;;;;;;;;;;5040712;28;20516;-61
2024/01/09 08:08:12;;;;;;;121.18;114.25;;;;;;;;;;5035499;28;20434;-61
2024/01/09 08:10:40;;;;;;;120.25;113.43;;;;;;;;;;5036469;28;21027;-61
2024/01/09 08:13:10;;;;;;;119.13;112.33;;;;;;;;;;5035921;28;21033;-61
2024/01/09 08:15:37;;;;;;;141.33;133.33;;;;;;;;;;5038489;28;20551;-61
2024/01/09 08:18:04;;;;;;;145.50;137.30;;;;;;;;;;5032485;28;20514;-61
2024/01/09 08:20:32;;;;;;;133.25;125.68;;;;;;;;;;5042852;28;20456;-62
2024/01/09 08:22:59;;;;;;;126.93;119.78;;;;;;;;;;5037417;28;20780;-61
2024/01/09 08:25:26;;;;;;;127.50;120.15;;;;;;;;;;5036114;28;20783;-61
2024/01/09 08:27:54;;;;;;;128.00;120.63;;;;;;;;;;5036674;28;20429;-61
2024/01/09 08:30:21;;;;;;;137.73;129.73;;;;;;;;;;5035385;28;20430;-61
2024/01/09 08:32:48;;;;;;;129.82;122.45;;;;;;;;;;5032238;28;20453;-61
2024/01/09 08:35:16;;;;;;;132.32;124.85;;;;;;;;;;5037038;28;20764;-61
2024/01/09 08:37:43;;;;;;;134.27;126.53;;;;;;;;;;5036001;28;20508;-61
2024/01/09 08:40:10;;;;;;;143.35;135.05;;;;;;;;;;5037248;28;20433;-61
2024/01/09 08:42:40;;;;;;;155.13;146.60;;;;;;;;;;5042304;28;20449;-62
2024/01/09 08:45:08;;;;;;;147.52;138.95;;;;;;;;;;5033729;28;20429;-62
2024/01/09 08:47:37;;;;;;;140.90;132.85;;;;;;;;;;5044334;28;20439;-61
2024/01/09 08:50:05;;;;;;;150.95;142.32;;;;;;;;;;5035106;28;20433;-62
2024/01/09 08:52:32;;;;;;;146.68;138.40;;;;;;;;;;5033732;28;20425;-61
2024/01/09 08:54:59;;;;;;;121.57;114.50;;;;;;;;;;5041040;28;20474;-62
2024/01/09 08:57:29;;;;;;;127.32;120.05;;;;;;;;;;5041740;28;20430;-62
2024/01/09 08:59:57;;;;;;;139.80;131.77;;;;;;;;;;5030594;28;20833;-62
2024/01/09 09:02:25;;;;;;;143.80;135.45;;;;;;;;;;5032437;28;20550;-62
2024/01/09 09:04:52;;;;;;;139.40;131.45;;;;;;;;;;5029099;28;20437;-62
2024/01/09 09:07:20;;;;;;;142.90;134.65;;;;;;;;;;5034245;28;20448;-62
2024/01/09 09:09:47;;;;;;;138.38;130.23;;;;;;;;;;5038801;28;20440;-62
2024/01/09 09:12:14;;;;;;;143.80;135.50;;;;;;;;;;5041807;28;20478;-62
2024/01/09 09:14:41;;;;;;;146.57;138.23;;;;;;;;;;5037413;28;20507;-62
2024/01/09 09:17:10;;;;;;;119.88;112.90;;;;;;;;;;5041340;28;20491;-62
2024/01/09 09:19:37;;;;;;;123.38;116.30;;;;;;;;;;5037101;28;20434;-62
2024/01/09 09:22:05;;;;;;;127.25;119.88;;;;;;;;;;5044201;28;20884;-62
2024/01/09 09:24:33;;;;;;;155.95;147.07;;;;;;;;;;5039829;28;20493;-62
2024/01/09 09:27:00;;;;;;;144.67;136.53;;;;;;;;;;5039393;28;20860;-62
2024/01/09 09:29:29;;;;;;;157.75;148.60;;;;;;;;;;5035461;28;20778;-62
2024/01/09 09:32:05;;;;;;;153.07;144.23;;;;;;;;;;5038496;28;20427;-62
2024/01/09 09:34:32;;;;;;;151.70;142.82;;;;;;;;;;5038491;28;21212;-62
2024/01/09 09:36:59;;;;;;;142.45;134.35;;;;;;;;;;5036011;28;20429;-63
2024/01/09 09:39:32;;;;;;;142.40;134.00;;;;;;;;;;5035766;28;20508;-63
2024/01/09 09:42:00;;;;;;;162.73;153.20;;;;;;;;;;5037297;28;20443;-63
2024/01/09 09:44:27;;;;;;;146.93;138.30;;;;;;;;;;5043343;28;20504;-63
2024/01/09 09:46:56;;;;;;;145.15;136.75;;;;;;;;;;5039837;28;20431;-63
2024/01/09 09:49:26;;;;;;;150.15;141.68;;;;;;;;;;5036379;28;20498;-62
2024/01/09 09:51:55;;;;;;;131.60;124.20;;;;;;;;;;5040608;28;20434;-62
2024/01/09 09:54:23;;;;;;;144.60;136.38;;;;;;;;;;5034270;28;20433;-63
2024/01/09 09:56:50;;;;;;;146.77;138.15;;;;;;;;;;5042019;28;20896;-62
2024/01/09 09:59:18;;;;;;;161.80;151.90;;;;;;;;;;5042280;28;20437;-62
2024/01/09 10:01:46;;;;;;;157.00;147.43;;;;;;;;;;5041483;28;20433;-63
2024/01/09 10:04:31;;;;;;;154.65;145.05;;;;;;;;;;5034506;28;20477;-63
2024/01/09 10:06:59;;;;;;;151.60;142.93;;;;;;;;;;5038095;28;20450;-63
2024/01/09 10:09:38;;;;;;;159.88;150.25;;;;;;;;;;5041267;28;20795;-62
2024/01/09 10:12:07;;;;;;;156.68;147.02;;;;;;;;;;5036585;28;20524;-62
2024/01/09 10:14:35;;;;;;;158.35;149.15;;;;;;;;;;5038157;28;20465;-62
2024/01/09 10:17:05;;;;;;;159.13;149.65;;;;;;;;;;5035718;28;20429;-63
2024/01/09 10:19:32;;;;;;;163.13;153.52;;;;;;;;;;5045833;28;20899;-62
2024/01/09 10:22:02;;;;;;;167.05;157.38;;;;;;;;;;5036415;28;20453;-62
2024/01/09 10:24:29;;;;;;;155.02;146.00;;;;;;;;;;5044747;28;20478;-62
2024/01/09 10:26:57;;;;;;;162.40;152.95;;;;;;;;;;5032873;28;20462;-62
2024/01/09 10:29:24;;;;;;;155.25;146.20;;;;;;;;;;5036460;28;20958;-62
2024/01/09 10:31:52;;;;;;;161.48;152.02;;;;;;;;;;5036012;28;20438;-63
2024/01/09 10:34:19;;;;;;;153.43;144.35;;;;;;;;;;5033915;28;20513;-63
2024/01/09 10:36:46;;;;;;;144.15;135.52;;;;;;;;;;5042528;28;20830;-62
2024/01/09 10:39:14;;;;;;;157.48;148.18;;;;;;;;;;5036694;28;20486;-62
2024/01/09 10:41:41;;;;;;;140.70;132.82;;;;;;;;;;5041619;28;21203;-62
2024/01/09 10:44:08;;;;;;;147.27;138.57;;;;;;;;;;5036807;28;20516;-62
2024/01/09 10:46:41;;;;;;;141.00;132.68;;;;;;;;;;5047052;28;20437;-62
2024/01/09 10:49:08;;;;;;;148.20;139.60;;;;;;;;;;5040922;28;20536;-62
2024/01/09 10:51:36;;;;;;;159.48;150.18;;;;;;;;;;5046826;28;20517;-62
2024/01/09 10:54:05;;;;;;;159.20;149.80;;;;;;;;;;5045124;28;20437;-62
2024/01/09 10:56:36;;;;;;;157.98;148.77;;;;;;;;;;5030586;28;20512;-62
2024/01/09 10:59:04;;;;;;;155.45;145.98;;;;;;;;;;5043834;28;20434;-62
2024/01/09 11:01:31;;;;;;;150.70;141.70;;;;;;;;;;5028002;28;20441;-62
2024/01/09 11:03:58;;;;;;;158.07;148.73;;;;;;;;;;5035947;28;20433;-62
2024/01/09 11:06:26;;;;;;;153.50;144.32;;;;;;;;;;5041220;28;20433;-61
2024/01/09 11:08:58;;;;;;;141.25;133.20;;;;;;;;;;5040347;28;20485;-61
2024/01/09 11:11:37;;;;;;;163.15;153.52;;;;;;;;;;5029155;28;20430;-61
2024/01/09 11:14:06;;;;;;;168.38;158.20;;;;;;;;;;5042028;28;20493;-62
2024/01/09 11:16:39;;;;;;;164.45;154.65;;;;;;;;;;5031469;28;21331;-62
2024/01/09 11:19:08;;;;;;;159.65;150.18;;;;;;;;;;5037045;28;20899;-61
2024/01/09 11:21:36;;;;;;;163.88;154.30;;;;;;;;;;5036685;28;20455;-62
2024/01/09 11:24:03;;;;;;;156.15;146.77;;;;;;;;;;5043989;28;20421;-61
2024/01/09 11:26:37;;;;;;;154.23;144.63;;;;;;;;;;5045799;28;20429;-62
2024/01/09 11:29:06;;;;;;;148.68;139.80;;;;;;;;;;5033397;28;20465;-62
2024/01/09 11:31:35;;;;;;;165.18;155.05;;;;;;;;;;5037194;28;20429;-61
2024/01/09 11:34:02;;;;;;;150.85;141.93;;;;;;;;;;5035943;28;20425;-61
2024/01/09 11:36:34;;;;;;;152.63;143.63;;;;;;;;;;5033326;28;20439;-61
2024/01/09 11:39:02;;;;;;;162.48;153.02;;;;;;;;;;5041666;28;20482;-61
2024/01/09 11:41:37;;;;;;;150.52;141.75;;;;;;;;;;5033113;28;20427;-61
2024/01/09 11:44:06;;;;;;;143.90;135.60;;;;;;;;;;5040931;28;20436;-61
2024/01/09 11:46:37;;;;;;;129.57;122.05;;;;;;;;;;5037776;28;20432;-61
2024/01/09 11:49:05;;;;;;;143.45;135.07;;;;;;;;;;5038482;28;20463;-61
2024/01/09 11:51:33;;;;;;;137.85;130.10;;;;;;;;;;5038206;28;20429;-62
2024/01/09 11:54:01;;;;;;;144.32;135.93;;;;;;;;;;5038660;28;20437;-62
2024/01/09 11:56:30;;;;;;;132.82;125.20;;;;;;;;;;5033296;28;20433;-61
2024/01/09 11:58:58;;;;;;;143.50;135.25;;;;;;;;;;5044388;28;21076;-62
2024/01/09 12:01:29;;;;;;;151.63;142.88;;;;;;;;;;5044340;28;20512;-61
2024/01/09 12:03:57;;;;;;;146.20;138.00;;;;;;;;;;5036678;28;20494;-61
2024/01/09 12:06:25;;;;;;;131.93;124.45;;;;;;;;;;5034627;28;20433;-62
2024/01/09 12:08:53;;;;;;;143.88;135.40;;;;;;;;;;5036350;28;20966;-62
2024/01/09 12:11:21;;;;;;;134.48;126.70;;;;;;;;;;5029663;28;20443;-62
2024/01/09 12:13:48;;;;;;;142.85;135.02;;;;;;;;;;5033437;28;20537;-62
2024/01/09 12:16:16;;;;;;;143.70;135.57;;;;;;;;;;5040268;28;20459;-62
2024/01/09 12:18:55;;;;;;;141.07;132.80;;;;;;;;;;5034924;28;20514;-62
2024/01/09 12:21:25;;;;;;;142.05;133.48;;;;;;;;;;5034173;28;20437;-60
2024/01/09 12:23:56;;;;;;;130.87;123.00;;;;;;;;;;5039898;28;20839;-62
2024/01/09 12:26:44;;;;;;;151.90;143.13;;;;;;;;;;5038788;28;20488;-62
2024/01/09 12:29:12;;;;;;;132.77;125.15;;;;;;;;;;5030876;28;20433;-62
2024/01/09 12:31:40;;;;;;;135.02;127.43;;;;;;;;;;5035099;28;20461;-62
2024/01/09 12:34:08;;;;;;;142.52;134.65;;;;;;;;;;5035890;28;20521;-62
2024/01/09 12:36:39;;;;;;;143.48;135.10;;;;;;;;;;5033045;28;21184;-62
2024/01/09 12:39:12;;;;;;;123.72;116.82;;;;;;;;;;5035990;28;20429;-62
2024/01/09 12:41:39;;;;;;;119.15;112.13;;;;;;;;;;5039546;28;20437;-62
2024/01/09 12:44:10;;;;;;;151.23;142.55;;;;;;;;;;5044882;28;20436;-62
2024/01/09 12:46:37;;;;;;;130.88;123.25;;;;;;;;;;5041987;28;20438;-62
2024/01/09 12:49:04;;;;;;;127.93;120.47;;;;;;;;;;5043750;28;20432;-62
2024/01/09 12:51:32;;;;;;;149.73;141.18;;;;;;;;;;5037609;28;20469;-62
2024/01/09 12:54:00;;;;;;;182.15;172.50;;;;;;;;;;5042419;28;20433;-62
2024/01/09 12:56:28;;;;;;;154.05;145.35;;;;;;;;;;5036741;28;20484;-62
2024/01/09 12:58:58;;;;;;;147.07;138.77;;;;;;;;;;5045738;28;20429;-62
2024/01/09 13:01:26;;;;;;;135.02;127.57;;;;;;;;;;5043315;28;20483;-60
2024/01/09 13:03:57;;;;;;;136.82;129.48;;;;;;;;;;5042988;28;20445;-60
2024/01/09 13:06:25;;;;;;;128.30;121.13;;;;;;;;;;5039166;28;20516;-60
2024/01/09 13:08:52;;;;;;;146.70;138.30;;;;;;;;;;5042924;28;21028;-60
2024/01/09 13:11:19;;;;;;;137.88;130.30;;;;;;;;;;5045330;28;20429;-61
2024/01/09 13:13:47;;;;;;;151.38;142.98;;;;;;;;;;5038331;28;20797;-61
2024/01/09 13:16:14;;;;;;;191.50;181.70;;;;;;;;;;5032120;28;21016;-61
2024/01/09 13:18:41;;;;;;;142.40;134.30;;;;;;;;;;5037815;28;22092;-61
2024/01/09 13:21:09;;;;;;;165.98;157.40;;;;;;;;;;5035743;28;20442;-61
2024/01/09 13:23:36;;;;;;;220.85;209.55;;;;;;;;;;5046503;28;20775;-61
2024/01/09 13:26:17;;;;;;;240.43;217.40;;;;;;;;;;5040655;28;20892;-60
2024/01/09 13:28:48;;;;;;;807.22;740.97;;;;;;;;;;5042377;28;20430;-61
2024/01/09 13:31:21;;;;;;;717.33;641.38;;;;;;;;;;5032310;28;20481;-61
2024/01/09 13:33:48;;;;;;;761.42;686.05;;;;;;;;;;5037250;28;20514;-60
2024/01/09 13:36:18;;;;;;;750.17;676.83;;;;;;;;;;5039526;28;20994;-60
2024/01/09 13:38:46;;;;;;;721.03;644.85;;;;;;;;;;5044470;28;20890;-60
2024/01/09 13:41:15;;;;;;;729.63;651.75;;;;;;;;;;5044387;28;20440;-61
2024/01/09 13:43:43;;;;;;;711.33;632.97;;;;;;;;;;5038406;28;21146;-62
2024/01/09 13:46:11;;;;;;;726.67;649.58;;;;;;;;;;5041012;28;20436;-61
2024/01/09 13:48:42;;;;;;;760.53;689.10;;;;;;;;;;5045347;28;20440;-60
2024/01/09 13:51:14;;;;;;;727.50;661.97;;;;;;;;;;5036082;28;20952;-60
2024/01/09 13:53:52;;;;;;;752.40;677.97;;;;;;;;;;5042547;28;21378;-60
2024/01/09 13:56:23;;;;;;;769.90;698.80;;;;;;;;;;5048595;28;20436;-61
2024/01/09 13:58:51;;;;;;;383.55;352.65;;;;;;;;;;5045478;28;20434;-61